sensor_id;sensor_type;location;lat;lon;timestamp;P1;durP1;ratioP1;P2;durP2;ratioP2
25549;SDS011;13444;50.562;7.262;2024-01-25T00:00:43;26.52;;;7.35;;
25549;SDS011;13444;50.562;7.262;2024-01-25T00:03:12;31.80;;;7.20;;
25549;SDS011;13444;50.562;7.262;2024-01-25T00:05:37;31.55;;;6.65;;
25549;SDS011;13444;50.562;7.262;2024-01-25T00:08:03;25.90;;;5.72;;
25549;SDS011;13444;50.562;7.262;2024-01-25T00:10:29;27.65;;;6.15;;
25549;SDS011;13444;50.562;7.262;2024-01-25T00:12:54;32.80;;;6.97;;
25549;SDS011;13444;50.562;7.262;2024-01-25T00:15:22;25.45;;;6.30;;
25549;SDS011;13444;50.562;7.262;2024-01-25T00:17:47;23.58;;;7.05;;
25549;SDS011;13444;50.562;7.262;2024-01-25T00:20:13;32.72;;;7.18;;
25549;SDS011;13444;50.562;7.262;2024-01-25T00:22:59;25.95;;;6.15;;
25549;SDS011;13444;50.562;7.262;2024-01-25T00:25:44;29.48;;;6.82;;
25549;SDS011;13444;50.562;7.262;2024-01-25T00:28:30;26.00;;;6.55;;
25549;SDS011;13444;50.562;7.262;2024-01-25T00:31:16;18.73;;;6.25;;
25549;SDS011;13444;50.562;7.262;2024-01-25T00:34:01;37.17;;;7.97;;
25549;SDS011;13444;50.562;7.262;2024-01-25T00:36:47;24.40;;;6.32;;
25549;SDS011;13444;50.562;7.262;2024-01-25T00:39:33;32.92;;;7.22;;
25549;SDS011;13444;50.562;7.262;2024-01-25T00:42:02;33.25;;;6.57;;
25549;SDS011;13444;50.562;7.262;2024-01-25T00:44:30;26.13;;;7.35;;
25549;SDS011;13444;50.562;7.262;2024-01-25T00:46:56;27.17;;;7.97;;
25549;SDS011;13444;50.562;7.262;2024-01-25T00:49:22;32.03;;;7.75;;
25549;SDS011;13444;50.562;7.262;2024-01-25T00:51:48;33.72;;;7.95;;
25549;SDS011;13444;50.562;7.262;2024-01-25T00:54:16;31.23;;;6.95;;
25549;SDS011;13444;50.562;7.262;2024-01-25T00:56:42;31.52;;;7.80;;
25549;SDS011;13444;50.562;7.262;2024-01-25T00:59:08;26.77;;;6.93;;
25549;SDS011;13444;50.562;7.262;2024-01-25T01:01:34;31.30;;;7.60;;
25549;SDS011;13444;50.562;7.262;2024-01-25T01:03:59;37.50;;;8.02;;
25549;SDS011;13444;50.562;7.262;2024-01-25T01:06:25;37.72;;;7.20;;
25549;SDS011;13444;50.562;7.262;2024-01-25T01:08:51;32.35;;;7.25;;
25549;SDS011;13444;50.562;7.262;2024-01-25T01:11:18;28.83;;;7.05;;
25549;SDS011;13444;50.562;7.262;2024-01-25T01:13:43;41.95;;;8.15;;
25549;SDS011;13444;50.562;7.262;2024-01-25T01:16:09;31.15;;;7.68;;
25549;SDS011;13444;50.562;7.262;2024-01-25T01:18:35;33.83;;;7.28;;
25549;SDS011;13444;50.562;7.262;2024-01-25T01:21:00;34.85;;;8.57;;
25549;SDS011;13444;50.562;7.262;2024-01-25T01:23:26;39.58;;;8.38;;
25549;SDS011;13444;50.562;7.262;2024-01-25T01:25:51;37.80;;;7.03;;
25549;SDS011;13444;50.562;7.262;2024-01-25T01:28:17;31.98;;;7.13;;
25549;SDS011;13444;50.562;7.262;2024-01-25T01:30:42;37.13;;;7.68;;
25549;SDS011;13444;50.562;7.262;2024-01-25T01:33:08;36.13;;;8.10;;
25549;SDS011;13444;50.562;7.262;2024-01-25T01:35:34;35.20;;;8.23;;
25549;SDS011;13444;50.562;7.262;2024-01-25T01:37:59;35.85;;;7.32;;
25549;SDS011;13444;50.562;7.262;2024-01-25T01:40:25;30.35;;;6.72;;
25549;SDS011;13444;50.562;7.262;2024-01-25T01:42:51;37.03;;;7.38;;
25549;SDS011;13444;50.562;7.262;2024-01-25T01:45:16;31.50;;;7.07;;
25549;SDS011;13444;50.562;7.262;2024-01-25T01:47:42;39.58;;;6.65;;
25549;SDS011;13444;50.562;7.262;2024-01-25T01:50:08;27.88;;;6.97;;
25549;SDS011;13444;50.562;7.262;2024-01-25T01:52:34;45.92;;;7.45;;
25549;SDS011;13444;50.562;7.262;2024-01-25T01:55:01;32.25;;;6.35;;
25549;SDS011;13444;50.562;7.262;2024-01-25T01:57:27;36.78;;;8.15;;
25549;SDS011;13444;50.562;7.262;2024-01-25T01:59:53;25.95;;;6.45;;
25549;SDS011;13444;50.562;7.262;2024-01-25T02:02:19;32.38;;;6.65;;
25549;SDS011;13444;50.562;7.262;2024-01-25T02:04:44;27.63;;;6.47;;
25549;SDS011;13444;50.562;7.262;2024-01-25T02:07:10;32.33;;;7.22;;
25549;SDS011;13444;50.562;7.262;2024-01-25T02:09:36;35.95;;;6.90;;
25549;SDS011;13444;50.562;7.262;2024-01-25T02:12:02;27.52;;;6.90;;
25549;SDS011;13444;50.562;7.262;2024-01-25T02:14:28;26.15;;;6.95;;
25549;SDS011;13444;50.562;7.262;2024-01-25T02:16:54;30.85;;;7.00;;
25549;SDS011;13444;50.562;7.262;2024-01-25T02:19:19;36.60;;;6.78;;
25549;SDS011;13444;50.562;7.262;2024-01-25T02:21:45;37.85;;;6.75;;
25549;SDS011;13444;50.562;7.262;2024-01-25T02:24:10;30.40;;;7.18;;
25549;SDS011;13444;50.562;7.262;2024-01-25T02:26:36;37.25;;;7.85;;
25549;SDS011;13444;50.562;7.262;2024-01-25T02:29:01;45.15;;;8.15;;
25549;SDS011;13444;50.562;7.262;2024-01-25T02:31:29;34.35;;;7.30;;
25549;SDS011;13444;50.562;7.262;2024-01-25T02:33:55;27.33;;;5.85;;
25549;SDS011;13444;50.562;7.262;2024-01-25T02:36:24;34.65;;;7.60;;
25549;SDS011;13444;50.562;7.262;2024-01-25T02:38:49;31.38;;;6.60;;
25549;SDS011;13444;50.562;7.262;2024-01-25T02:41:15;32.17;;;6.47;;
25549;SDS011;13444;50.562;7.262;2024-01-25T02:43:41;40.00;;;7.00;;
25549;SDS011;13444;50.562;7.262;2024-01-25T02:46:07;24.33;;;6.07;;
25549;SDS011;13444;50.562;7.262;2024-01-25T02:48:34;29.70;;;7.13;;
25549;SDS011;13444;50.562;7.262;2024-01-25T02:51:00;41.63;;;6.90;;
25549;SDS011;13444;50.562;7.262;2024-01-25T02:53:25;36.05;;;7.28;;
25549;SDS011;13444;50.562;7.262;2024-01-25T02:55:51;35.58;;;7.07;;
25549;SDS011;13444;50.562;7.262;2024-01-25T02:58:16;43.97;;;8.07;;
25549;SDS011;13444;50.562;7.262;2024-01-25T03:00:42;31.80;;;6.78;;
25549;SDS011;13444;50.562;7.262;2024-01-25T03:03:07;29.00;;;6.88;;
25549;SDS011;13444;50.562;7.262;2024-01-25T03:05:33;38.00;;;7.40;;
25549;SDS011;13444;50.562;7.262;2024-01-25T03:07:59;35.42;;;7.10;;
25549;SDS011;13444;50.562;7.262;2024-01-25T03:10:25;30.80;;;7.00;;
25549;SDS011;13444;50.562;7.262;2024-01-25T03:12:50;29.40;;;6.75;;
25549;SDS011;13444;50.562;7.262;2024-01-25T03:15:16;34.67;;;7.47;;
25549;SDS011;13444;50.562;7.262;2024-01-25T03:17:42;33.50;;;7.25;;
25549;SDS011;13444;50.562;7.262;2024-01-25T03:20:07;29.27;;;6.70;;
25549;SDS011;13444;50.562;7.262;2024-01-25T03:22:33;28.92;;;6.40;;
25549;SDS011;13444;50.562;7.262;2024-01-25T03:24:58;37.67;;;7.03;;
25549;SDS011;13444;50.562;7.262;2024-01-25T03:27:24;35.42;;;7.25;;
25549;SDS011;13444;50.562;7.262;2024-01-25T03:29:50;35.92;;;6.60;;
25549;SDS011;13444;50.562;7.262;2024-01-25T03:32:16;44.33;;;7.82;;
25549;SDS011;13444;50.562;7.262;2024-01-25T03:34:41;35.30;;;7.28;;
25549;SDS011;13444;50.562;7.262;2024-01-25T03:37:06;38.67;;;8.10;;
25549;SDS011;13444;50.562;7.262;2024-01-25T03:39:32;31.90;;;6.80;;
25549;SDS011;13444;50.562;7.262;2024-01-25T03:41:58;32.70;;;7.53;;
25549;SDS011;13444;50.562;7.262;2024-01-25T03:44:23;37.15;;;7.35;;
25549;SDS011;13444;50.562;7.262;2024-01-25T03:46:49;49.42;;;8.30;;
25549;SDS011;13444;50.562;7.262;2024-01-25T03:49:14;37.67;;;7.50;;
25549;SDS011;13444;50.562;7.262;2024-01-25T03:51:40;39.17;;;7.82;;
25549;SDS011;13444;50.562;7.262;2024-01-25T03:54:05;33.95;;;8.25;;
25549;SDS011;13444;50.562;7.262;2024-01-25T03:56:31;35.53;;;7.60;;
25549;SDS011;13444;50.562;7.262;2024-01-25T03:58:57;39.33;;;7.50;;
25549;SDS011;13444;50.562;7.262;2024-01-25T04:01:22;35.67;;;7.97;;
25549;SDS011;13444;50.562;7.262;2024-01-25T04:03:48;39.17;;;8.38;;
25549;SDS011;13444;50.562;7.262;2024-01-25T04:06:13;37.88;;;7.75;;
25549;SDS011;13444;50.562;7.262;2024-01-25T04:08:39;35.00;;;7.72;;
25549;SDS011;13444;50.562;7.262;2024-01-25T04:11:04;43.13;;;8.65;;
25549;SDS011;13444;50.562;7.262;2024-01-25T04:13:30;33.90;;;8.10;;
25549;SDS011;13444;50.562;7.262;2024-01-25T04:15:55;34.13;;;8.23;;
25549;SDS011;13444;50.562;7.262;2024-01-25T04:18:21;44.67;;;9.43;;
25549;SDS011;13444;50.562;7.262;2024-01-25T04:20:46;39.92;;;8.77;;
25549;SDS011;13444;50.562;7.262;2024-01-25T04:23:12;34.35;;;7.93;;
25549;SDS011;13444;50.562;7.262;2024-01-25T04:25:37;42.78;;;8.32;;
25549;SDS011;13444;50.562;7.262;2024-01-25T04:28:03;39.70;;;8.00;;
25549;SDS011;13444;50.562;7.262;2024-01-25T04:30:28;40.38;;;7.78;;
25549;SDS011;13444;50.562;7.262;2024-01-25T04:32:55;36.00;;;8.70;;
25549;SDS011;13444;50.562;7.262;2024-01-25T04:35:21;44.63;;;9.60;;
25549;SDS011;13444;50.562;7.262;2024-01-25T04:37:46;36.83;;;9.30;;
25549;SDS011;13444;50.562;7.262;2024-01-25T04:40:12;41.08;;;9.10;;
25549;SDS011;13444;50.562;7.262;2024-01-25T04:42:37;31.85;;;7.43;;
25549;SDS011;13444;50.562;7.262;2024-01-25T04:45:03;35.88;;;8.93;;
25549;SDS011;13444;50.562;7.262;2024-01-25T04:47:29;42.63;;;8.95;;
25549;SDS011;13444;50.562;7.262;2024-01-25T04:49:55;37.83;;;8.38;;
25549;SDS011;13444;50.562;7.262;2024-01-25T04:52:21;33.42;;;8.10;;
25549;SDS011;13444;50.562;7.262;2024-01-25T04:54:46;43.08;;;8.88;;
25549;SDS011;13444;50.562;7.262;2024-01-25T04:57:12;43.05;;;7.75;;
25549;SDS011;13444;50.562;7.262;2024-01-25T04:59:38;44.63;;;8.43;;
25549;SDS011;13444;50.562;7.262;2024-01-25T05:02:03;43.15;;;9.10;;
25549;SDS011;13444;50.562;7.262;2024-01-25T05:04:29;33.70;;;7.72;;
25549;SDS011;13444;50.562;7.262;2024-01-25T05:06:56;34.75;;;8.63;;
25549;SDS011;13444;50.562;7.262;2024-01-25T05:09:22;31.30;;;7.28;;
25549;SDS011;13444;50.562;7.262;2024-01-25T05:11:47;46.63;;;8.88;;
25549;SDS011;13444;50.562;7.262;2024-01-25T05:14:13;33.85;;;7.60;;
25549;SDS011;13444;50.562;7.262;2024-01-25T05:16:38;36.10;;;8.43;;
25549;SDS011;13444;50.562;7.262;2024-01-25T05:19:04;44.65;;;8.00;;
25549;SDS011;13444;50.562;7.262;2024-01-25T05:21:29;36.97;;;9.07;;
25549;SDS011;13444;50.562;7.262;2024-01-25T05:23:55;39.33;;;9.20;;
25549;SDS011;13444;50.562;7.262;2024-01-25T05:26:20;41.28;;;8.70;;
25549;SDS011;13444;50.562;7.262;2024-01-25T05:28:46;36.10;;;7.88;;
25549;SDS011;13444;50.562;7.262;2024-01-25T05:31:11;41.75;;;9.07;;
25549;SDS011;13444;50.562;7.262;2024-01-25T05:33:41;41.28;;;9.35;;
25549;SDS011;13444;50.562;7.262;2024-01-25T05:36:07;37.92;;;8.10;;
25549;SDS011;13444;50.562;7.262;2024-01-25T05:38:33;35.75;;;7.90;;
25549;SDS011;13444;50.562;7.262;2024-01-25T05:40:58;38.65;;;9.02;;
25549;SDS011;13444;50.562;7.262;2024-01-25T05:43:25;35.88;;;8.45;;
25549;SDS011;13444;50.562;7.262;2024-01-25T05:45:51;32.70;;;7.40;;
25549;SDS011;13444;50.562;7.262;2024-01-25T05:48:16;30.67;;;8.75;;
25549;SDS011;13444;50.562;7.262;2024-01-25T05:50:42;34.75;;;8.73;;
25549;SDS011;13444;50.562;7.262;2024-01-25T05:53:08;29.75;;;7.68;;
25549;SDS011;13444;50.562;7.262;2024-01-25T05:55:33;37.78;;;8.30;;
25549;SDS011;13444;50.562;7.262;2024-01-25T05:57:59;31.02;;;6.88;;
25549;SDS011;13444;50.562;7.262;2024-01-25T06:00:24;34.80;;;6.82;;
25549;SDS011;13444;50.562;7.262;2024-01-25T06:02:50;31.30;;;7.13;;
25549;SDS011;13444;50.562;7.262;2024-01-25T06:05:16;28.40;;;7.75;;
25549;SDS011;13444;50.562;7.262;2024-01-25T06:07:41;34.70;;;8.05;;
25549;SDS011;13444;50.562;7.262;2024-01-25T06:10:07;31.52;;;7.78;;
25549;SDS011;13444;50.562;7.262;2024-01-25T06:12:33;31.85;;;8.18;;
25549;SDS011;13444;50.562;7.262;2024-01-25T06:14:59;22.40;;;6.70;;
25549;SDS011;13444;50.562;7.262;2024-01-25T06:17:24;24.98;;;7.00;;
25549;SDS011;13444;50.562;7.262;2024-01-25T06:19:50;28.83;;;7.32;;
25549;SDS011;13444;50.562;7.262;2024-01-25T06:22:15;19.00;;;5.70;;
25549;SDS011;13444;50.562;7.262;2024-01-25T06:24:42;20.60;;;5.88;;
25549;SDS011;13444;50.562;7.262;2024-01-25T06:27:09;28.35;;;7.30;;
25549;SDS011;13444;50.562;7.262;2024-01-25T06:29:34;19.00;;;6.60;;
25549;SDS011;13444;50.562;7.262;2024-01-25T06:32:00;24.50;;;7.15;;
25549;SDS011;13444;50.562;7.262;2024-01-25T06:34:25;22.23;;;5.75;;
25549;SDS011;13444;50.562;7.262;2024-01-25T06:36:51;23.05;;;6.80;;
25549;SDS011;13444;50.562;7.262;2024-01-25T06:39:16;18.27;;;5.57;;
25549;SDS011;13444;50.562;7.262;2024-01-25T06:41:42;33.25;;;7.68;;
25549;SDS011;13444;50.562;7.262;2024-01-25T06:44:07;22.88;;;6.82;;
25549;SDS011;13444;50.562;7.262;2024-01-25T06:46:33;24.02;;;5.97;;
25549;SDS011;13444;50.562;7.262;2024-01-25T06:48:59;26.08;;;7.07;;
25549;SDS011;13444;50.562;7.262;2024-01-25T06:51:24;21.63;;;6.20;;
25549;SDS011;13444;50.562;7.262;2024-01-25T06:53:50;26.15;;;7.10;;
25549;SDS011;13444;50.562;7.262;2024-01-25T06:56:15;22.25;;;5.55;;
25549;SDS011;13444;50.562;7.262;2024-01-25T06:58:41;26.90;;;7.13;;
25549;SDS011;13444;50.562;7.262;2024-01-25T07:01:07;24.80;;;6.70;;
25549;SDS011;13444;50.562;7.262;2024-01-25T07:03:33;23.23;;;6.60;;
25549;SDS011;13444;50.562;7.262;2024-01-25T07:05:58;19.88;;;6.65;;
25549;SDS011;13444;50.562;7.262;2024-01-25T07:08:24;24.60;;;7.30;;
25549;SDS011;13444;50.562;7.262;2024-01-25T07:10:49;33.63;;;7.75;;
25549;SDS011;13444;50.562;7.262;2024-01-25T07:13:15;22.93;;;7.83;;
25549;SDS011;13444;50.562;7.262;2024-01-25T07:15:41;26.97;;;6.57;;
25549;SDS011;13444;50.562;7.262;2024-01-25T07:18:07;31.23;;;8.50;;
25549;SDS011;13444;50.562;7.262;2024-01-25T07:20:32;23.35;;;7.40;;
25549;SDS011;13444;50.562;7.262;2024-01-25T07:22:59;31.20;;;8.40;;
25549;SDS011;13444;50.562;7.262;2024-01-25T07:25:24;27.20;;;7.67;;
25549;SDS011;13444;50.562;7.262;2024-01-25T07:27:50;19.43;;;7.10;;
25549;SDS011;13444;50.562;7.262;2024-01-25T07:30:15;20.37;;;7.07;;
25549;SDS011;13444;50.562;7.262;2024-01-25T07:32:41;26.43;;;7.33;;
25549;SDS011;13444;50.562;7.262;2024-01-25T07:35:10;20.85;;;6.97;;
25549;SDS011;13444;50.562;7.262;2024-01-25T07:37:36;24.47;;;7.53;;
25549;SDS011;13444;50.562;7.262;2024-01-25T07:40:02;27.27;;;7.80;;
25549;SDS011;13444;50.562;7.262;2024-01-25T07:42:28;31.83;;;8.77;;
25549;SDS011;13444;50.562;7.262;2024-01-25T07:44:54;21.53;;;7.37;;
25549;SDS011;13444;50.562;7.262;2024-01-25T07:47:19;32.53;;;8.40;;
25549;SDS011;13444;50.562;7.262;2024-01-25T07:49:45;23.23;;;7.73;;
25549;SDS011;13444;50.562;7.262;2024-01-25T07:52:10;27.17;;;7.87;;
25549;SDS011;13444;50.562;7.262;2024-01-25T07:54:36;28.30;;;7.23;;
25549;SDS011;13444;50.562;7.262;2024-01-25T07:57:01;30.37;;;7.67;;
25549;SDS011;13444;50.562;7.262;2024-01-25T07:59:27;23.17;;;7.37;;
25549;SDS011;13444;50.562;7.262;2024-01-25T08:01:53;24.67;;;7.57;;
25549;SDS011;13444;50.562;7.262;2024-01-25T08:04:18;22.67;;;7.47;;
25549;SDS011;13444;50.562;7.262;2024-01-25T08:06:44;41.90;;;9.67;;
25549;SDS011;13444;50.562;7.262;2024-01-25T08:09:09;25.83;;;7.77;;
25549;SDS011;13444;50.562;7.262;2024-01-25T08:11:35;37.33;;;8.93;;
25549;SDS011;13444;50.562;7.262;2024-01-25T08:14:01;27.57;;;7.50;;
25549;SDS011;13444;50.562;7.262;2024-01-25T08:16:28;28.90;;;7.77;;
25549;SDS011;13444;50.562;7.262;2024-01-25T08:18:54;30.40;;;8.70;;
25549;SDS011;13444;50.562;7.262;2024-01-25T08:21:19;30.37;;;9.20;;
25549;SDS011;13444;50.562;7.262;2024-01-25T08:23:45;34.10;;;10.30;;
25549;SDS011;13444;50.562;7.262;2024-01-25T08:26:10;28.60;;;9.07;;
25549;SDS011;13444;50.562;7.262;2024-01-25T08:28:40;30.97;;;9.17;;
25549;SDS011;13444;50.562;7.262;2024-01-25T08:31:08;24.33;;;8.27;;
25549;SDS011;13444;50.562;7.262;2024-01-25T08:33:33;24.93;;;8.60;;
25549;SDS011;13444;50.562;7.262;2024-01-25T08:35:59;29.63;;;9.23;;
25549;SDS011;13444;50.562;7.262;2024-01-25T08:38:25;32.03;;;9.07;;
25549;SDS011;13444;50.562;7.262;2024-01-25T08:40:50;29.37;;;9.17;;
25549;SDS011;13444;50.562;7.262;2024-01-25T08:43:16;33.03;;;10.57;;
25549;SDS011;13444;50.562;7.262;2024-01-25T08:45:42;35.13;;;10.57;;
25549;SDS011;13444;50.562;7.262;2024-01-25T08:48:08;37.57;;;10.10;;
25549;SDS011;13444;50.562;7.262;2024-01-25T08:50:34;39.07;;;10.57;;
25549;SDS011;13444;50.562;7.262;2024-01-25T08:53:00;30.23;;;9.70;;
25549;SDS011;13444;50.562;7.262;2024-01-25T08:55:26;36.30;;;11.05;;
25549;SDS011;13444;50.562;7.262;2024-01-25T08:57:51;36.85;;;10.32;;
25549;SDS011;13444;50.562;7.262;2024-01-25T09:00:17;47.37;;;10.67;;
25549;SDS011;13444;50.562;7.262;2024-01-25T09:02:43;32.70;;;9.10;;
25549;SDS011;13444;50.562;7.262;2024-01-25T09:05:09;32.45;;;8.25;;
25549;SDS011;13444;50.562;7.262;2024-01-25T09:07:34;34.10;;;9.52;;
25549;SDS011;13444;50.562;7.262;2024-01-25T09:10:00;30.00;;;8.98;;
25549;SDS011;13444;50.562;7.262;2024-01-25T09:12:26;34.20;;;8.98;;
25549;SDS011;13444;50.562;7.262;2024-01-25T09:14:51;33.63;;;9.10;;
25549;SDS011;13444;50.562;7.262;2024-01-25T09:17:17;34.83;;;9.57;;
25549;SDS011;13444;50.562;7.262;2024-01-25T09:19:47;34.47;;;10.13;;
25549;SDS011;13444;50.562;7.262;2024-01-25T09:22:14;42.33;;;10.50;;
25549;SDS011;13444;50.562;7.262;2024-01-25T09:24:42;43.05;;;9.95;;
25549;SDS011;13444;50.562;7.262;2024-01-25T09:27:07;32.65;;;8.85;;
25549;SDS011;13444;50.562;7.262;2024-01-25T09:29:33;29.73;;;8.60;;
25549;SDS011;13444;50.562;7.262;2024-01-25T09:31:58;31.95;;;8.90;;
25549;SDS011;13444;50.562;7.262;2024-01-25T09:34:24;34.45;;;8.98;;
25549;SDS011;13444;50.562;7.262;2024-01-25T09:36:50;27.33;;;8.73;;
25549;SDS011;13444;50.562;7.262;2024-01-25T09:39:16;33.20;;;8.45;;
25549;SDS011;13444;50.562;7.262;2024-01-25T09:41:42;28.42;;;7.60;;
25549;SDS011;13444;50.562;7.262;2024-01-25T09:44:08;38.95;;;9.07;;
25549;SDS011;13444;50.562;7.262;2024-01-25T09:46:34;31.75;;;7.32;;
25549;SDS011;13444;50.562;7.262;2024-01-25T09:49:00;35.28;;;9.30;;
25549;SDS011;13444;50.562;7.262;2024-01-25T09:51:34;32.08;;;7.90;;
25549;SDS011;13444;50.562;7.262;2024-01-25T09:54:03;36.35;;;8.57;;
25549;SDS011;13444;50.562;7.262;2024-01-25T09:56:31;30.77;;;8.18;;
25549;SDS011;13444;50.562;7.262;2024-01-25T09:58:57;29.95;;;7.90;;
25549;SDS011;13444;50.562;7.262;2024-01-25T10:01:23;32.90;;;7.82;;
25549;SDS011;13444;50.562;7.262;2024-01-25T10:03:49;26.65;;;7.22;;
25549;SDS011;13444;50.562;7.262;2024-01-25T10:06:15;33.80;;;8.50;;
25549;SDS011;13444;50.562;7.262;2024-01-25T10:08:41;33.08;;;8.35;;
25549;SDS011;13444;50.562;7.262;2024-01-25T10:11:08;32.55;;;8.68;;
25549;SDS011;13444;50.562;7.262;2024-01-25T10:13:40;29.63;;;8.75;;
25549;SDS011;13444;50.562;7.262;2024-01-25T10:16:07;33.83;;;8.60;;
25549;SDS011;13444;50.562;7.262;2024-01-25T10:18:35;31.90;;;8.10;;
25549;SDS011;13444;50.562;7.262;2024-01-25T10:21:01;31.50;;;8.30;;
25549;SDS011;13444;50.562;7.262;2024-01-25T10:23:28;27.23;;;7.10;;
25549;SDS011;13444;50.562;7.262;2024-01-25T10:25:53;34.00;;;7.93;;
25549;SDS011;13444;50.562;7.262;2024-01-25T10:28:21;36.78;;;7.57;;
25549;SDS011;13444;50.562;7.262;2024-01-25T10:30:50;29.73;;;7.32;;
25549;SDS011;13444;50.562;7.262;2024-01-25T10:33:15;25.70;;;6.30;;
25549;SDS011;13444;50.562;7.262;2024-01-25T10:35:42;23.38;;;5.95;;
25549;SDS011;13444;50.562;7.262;2024-01-25T10:38:14;26.50;;;6.05;;
25549;SDS011;13444;50.562;7.262;2024-01-25T10:40:43;26.85;;;6.07;;
25549;SDS011;13444;50.562;7.262;2024-01-25T10:43:11;23.70;;;6.10;;
25549;SDS011;13444;50.562;7.262;2024-01-25T10:45:36;25.85;;;6.13;;
25549;SDS011;13444;50.562;7.262;2024-01-25T10:48:02;19.33;;;5.90;;
25549;SDS011;13444;50.562;7.262;2024-01-25T10:50:28;21.38;;;5.97;;
25549;SDS011;13444;50.562;7.262;2024-01-25T10:52:53;23.92;;;5.78;;
25549;SDS011;13444;50.562;7.262;2024-01-25T10:55:19;21.27;;;5.28;;
25549;SDS011;13444;50.562;7.262;2024-01-25T10:57:46;18.02;;;5.30;;
25549;SDS011;13444;50.562;7.262;2024-01-25T11:00:12;31.27;;;6.78;;
25549;SDS011;13444;50.562;7.262;2024-01-25T11:02:40;20.25;;;4.90;;
25549;SDS011;13444;50.562;7.262;2024-01-25T11:05:08;22.67;;;6.53;;
25549;SDS011;13444;50.562;7.262;2024-01-25T11:07:41;19.67;;;5.88;;
25549;SDS011;13444;50.562;7.262;2024-01-25T11:10:12;24.02;;;6.22;;
25549;SDS011;13444;50.562;7.262;2024-01-25T11:12:50;24.42;;;6.25;;
25549;SDS011;13444;50.562;7.262;2024-01-25T11:15:22;19.92;;;5.82;;
25549;SDS011;13444;50.562;7.262;2024-01-25T11:17:54;21.83;;;5.85;;
25549;SDS011;13444;50.562;7.262;2024-01-25T11:20:24;21.85;;;5.60;;
25549;SDS011;13444;50.562;7.262;2024-01-25T11:22:58;22.73;;;6.00;;
25549;SDS011;13444;50.562;7.262;2024-01-25T11:25:32;27.80;;;6.05;;
25549;SDS011;13444;50.562;7.262;2024-01-25T11:27:59;15.73;;;4.97;;
25549;SDS011;13444;50.562;7.262;2024-01-25T11:30:28;20.45;;;5.57;;
25549;SDS011;13444;50.562;7.262;2024-01-25T11:32:55;22.52;;;4.95;;
25549;SDS011;13444;50.562;7.262;2024-01-25T11:35:21;18.83;;;5.72;;
25549;SDS011;13444;50.562;7.262;2024-01-25T11:37:47;22.40;;;5.57;;
25549;SDS011;13444;50.562;7.262;2024-01-25T11:40:14;20.17;;;5.13;;
25549;SDS011;13444;50.562;7.262;2024-01-25T11:42:44;21.98;;;5.20;;
25549;SDS011;13444;50.562;7.262;2024-01-25T11:45:12;19.13;;;5.40;;
25549;SDS011;13444;50.562;7.262;2024-01-25T11:47:39;22.80;;;6.07;;
25549;SDS011;13444;50.562;7.262;2024-01-25T11:50:06;20.40;;;5.00;;
25549;SDS011;13444;50.562;7.262;2024-01-25T11:52:33;20.77;;;5.20;;
25549;SDS011;13444;50.562;7.262;2024-01-25T11:55:01;21.20;;;5.45;;
25549;SDS011;13444;50.562;7.262;2024-01-25T11:57:32;22.50;;;5.35;;
25549;SDS011;13444;50.562;7.262;2024-01-25T12:00:02;26.02;;;5.53;;
25549;SDS011;13444;50.562;7.262;2024-01-25T12:02:29;19.67;;;6.13;;
25549;SDS011;13444;50.562;7.262;2024-01-25T12:04:56;21.23;;;5.20;;
25549;SDS011;13444;50.562;7.262;2024-01-25T12:07:22;21.90;;;5.55;;
25549;SDS011;13444;50.562;7.262;2024-01-25T12:09:57;19.73;;;4.72;;
25549;SDS011;13444;50.562;7.262;2024-01-25T12:12:24;16.27;;;4.60;;
25549;SDS011;13444;50.562;7.262;2024-01-25T12:14:49;24.30;;;5.63;;
25549;SDS011;13444;50.562;7.262;2024-01-25T12:17:17;19.52;;;5.57;;
25549;SDS011;13444;50.562;7.262;2024-01-25T12:19:42;20.45;;;5.68;;
25549;SDS011;13444;50.562;7.262;2024-01-25T12:22:08;20.08;;;5.63;;
25549;SDS011;13444;50.562;7.262;2024-01-25T12:24:33;21.15;;;5.20;;
25549;SDS011;13444;50.562;7.262;2024-01-25T12:27:00;22.88;;;5.15;;
25549;SDS011;13444;50.562;7.262;2024-01-25T12:29:25;18.40;;;4.88;;
25549;SDS011;13444;50.562;7.262;2024-01-25T12:31:51;18.45;;;5.10;;
25549;SDS011;13444;50.562;7.262;2024-01-25T12:34:16;17.25;;;5.10;;
25549;SDS011;13444;50.562;7.262;2024-01-25T12:36:42;22.67;;;5.30;;
25549;SDS011;13444;50.562;7.262;2024-01-25T12:39:08;18.58;;;5.32;;
25549;SDS011;13444;50.562;7.262;2024-01-25T12:41:33;22.02;;;5.18;;
25549;SDS011;13444;50.562;7.262;2024-01-25T12:44:00;15.90;;;4.93;;
25549;SDS011;13444;50.562;7.262;2024-01-25T12:46:25;20.63;;;5.55;;
25549;SDS011;13444;50.562;7.262;2024-01-25T12:48:51;17.10;;;4.90;;
25549;SDS011;13444;50.562;7.262;2024-01-25T12:51:20;22.98;;;5.97;;
25549;SDS011;13444;50.562;7.262;2024-01-25T12:53:46;14.68;;;4.15;;
25549;SDS011;13444;50.562;7.262;2024-01-25T12:56:12;19.70;;;5.38;;
25549;SDS011;13444;50.562;7.262;2024-01-25T12:58:38;17.90;;;4.85;;
25549;SDS011;13444;50.562;7.262;2024-01-25T13:01:04;15.73;;;4.07;;
25549;SDS011;13444;50.562;7.262;2024-01-25T13:03:30;21.45;;;5.15;;
25549;SDS011;13444;50.562;7.262;2024-01-25T13:05:55;18.00;;;5.45;;
25549;SDS011;13444;50.562;7.262;2024-01-25T13:08:21;14.90;;;5.18;;
25549;SDS011;13444;50.562;7.262;2024-01-25T13:10:46;14.75;;;4.53;;
25549;SDS011;13444;50.562;7.262;2024-01-25T13:13:12;13.60;;;4.68;;
25549;SDS011;13444;50.562;7.262;2024-01-25T13:15:37;16.30;;;4.88;;
25549;SDS011;13444;50.562;7.262;2024-01-25T13:18:03;14.55;;;4.25;;
25549;SDS011;13444;50.562;7.262;2024-01-25T13:20:29;18.73;;;5.05;;
25549;SDS011;13444;50.562;7.262;2024-01-25T13:22:54;20.58;;;5.28;;
25549;SDS011;13444;50.562;7.262;2024-01-25T13:25:20;21.20;;;5.07;;
25549;SDS011;13444;50.562;7.262;2024-01-25T13:27:45;20.52;;;4.80;;
25549;SDS011;13444;50.562;7.262;2024-01-25T13:30:11;19.85;;;5.07;;
25549;SDS011;13444;50.562;7.262;2024-01-25T13:32:38;28.95;;;5.03;;
25549;SDS011;13444;50.562;7.262;2024-01-25T13:35:04;21.20;;;5.05;;
25549;SDS011;13444;50.562;7.262;2024-01-25T13:37:29;14.63;;;4.07;;
25549;SDS011;13444;50.562;7.262;2024-01-25T13:39:55;12.38;;;4.05;;
25549;SDS011;13444;50.562;7.262;2024-01-25T13:42:21;17.42;;;4.80;;
25549;SDS011;13444;50.562;7.262;2024-01-25T13:44:46;15.68;;;4.28;;
25549;SDS011;13444;50.562;7.262;2024-01-25T13:47:12;19.13;;;5.30;;
25549;SDS011;13444;50.562;7.262;2024-01-25T13:49:37;22.00;;;5.38;;
25549;SDS011;13444;50.562;7.262;2024-01-25T13:52:03;24.40;;;5.30;;
25549;SDS011;13444;50.562;7.262;2024-01-25T13:54:29;22.65;;;5.30;;
25549;SDS011;13444;50.562;7.262;2024-01-25T13:56:55;20.27;;;4.97;;
25549;SDS011;13444;50.562;7.262;2024-01-25T13:59:20;20.95;;;5.25;;
25549;SDS011;13444;50.562;7.262;2024-01-25T14:01:46;22.80;;;5.30;;
25549;SDS011;13444;50.562;7.262;2024-01-25T14:04:11;15.77;;;4.72;;
25549;SDS011;13444;50.562;7.262;2024-01-25T14:06:38;24.80;;;5.72;;
25549;SDS011;13444;50.562;7.262;2024-01-25T14:09:04;19.80;;;4.75;;
25549;SDS011;13444;50.562;7.262;2024-01-25T14:11:30;22.58;;;5.85;;
25549;SDS011;13444;50.562;7.262;2024-01-25T14:13:56;19.48;;;6.07;;
25549;SDS011;13444;50.562;7.262;2024-01-25T14:16:21;20.50;;;6.78;;
25549;SDS011;13444;50.562;7.262;2024-01-25T14:18:47;26.48;;;5.90;;
25549;SDS011;13444;50.562;7.262;2024-01-25T14:21:12;19.10;;;4.88;;
25549;SDS011;13444;50.562;7.262;2024-01-25T14:23:38;23.75;;;5.18;;
25549;SDS011;13444;50.562;7.262;2024-01-25T14:26:03;24.08;;;5.10;;
25549;SDS011;13444;50.562;7.262;2024-01-25T14:28:29;21.02;;;5.25;;